createdAt,value
2024-05-09T00:00:06.354Z,789.00
2024-05-09T00:01:04.163Z,794.00
2024-05-09T00:02:04.193Z,789.00
2024-05-09T00:03:04.170Z,785.00
2024-05-09T00:04:04.426Z,790.00
2024-05-09T00:05:04.390Z,789.00
2024-05-09T00:06:04.461Z,782.00
2024-05-09T00:07:04.303Z,779.00
2024-05-09T00:08:04.458Z,779.00
2024-05-09T00:09:04.400Z,787.00
2024-05-09T00:10:05.568Z,779.00
2024-05-09T00:11:04.577Z,780.00
2024-05-09T00:12:04.536Z,789.00
2024-05-09T00:13:04.488Z,782.00
2024-05-09T00:14:04.536Z,785.00
2024-05-09T00:15:04.496Z,785.00
2024-05-09T00:16:04.494Z,794.00
2024-05-09T00:17:04.557Z,786.00
2024-05-09T00:18:05.310Z,781.00
2024-05-09T00:19:04.646Z,789.00
2024-05-09T00:20:11.056Z,793.00
2024-05-09T00:21:05.570Z,793.00
2024-05-09T00:22:04.565Z,793.00
2024-05-09T00:23:04.588Z,793.00
2024-05-09T00:24:04.555Z,791.00
2024-05-09T00:25:04.560Z,787.00
2024-05-09T00:26:04.603Z,778.00
2024-05-09T00:27:04.596Z,790.00
2024-05-09T00:28:04.594Z,787.00
2024-05-09T00:29:04.649Z,792.00
2024-05-09T00:30:07.072Z,787.00
2024-05-09T00:31:04.784Z,780.00
2024-05-09T00:32:04.975Z,775.00
2024-05-09T00:33:06.028Z,784.00
2024-05-09T00:34:05.190Z,786.00
2024-05-09T00:35:05.043Z,789.00
2024-05-09T00:36:05.044Z,788.00
2024-05-09T00:37:05.117Z,784.00
2024-05-09T00:38:05.311Z,782.00
2024-05-09T00:39:05.208Z,783.00
2024-05-09T00:40:07.425Z,786.00
2024-05-09T00:41:05.317Z,786.00
2024-05-09T00:42:05.320Z,774.00
2024-05-09T00:43:05.310Z,781.00
2024-05-09T00:44:05.353Z,778.00
2024-05-09T00:45:05.331Z,774.00
2024-05-09T00:46:05.335Z,776.00
2024-05-09T00:47:05.420Z,775.00
2024-05-09T00:48:05.594Z,773.00
2024-05-09T00:49:05.422Z,774.00
2024-05-09T00:50:09.934Z,778.00
2024-05-09T00:51:06.530Z,779.00
2024-05-09T00:52:05.382Z,779.00
2024-05-09T00:53:05.454Z,782.00
2024-05-09T00:54:05.375Z,781.00
2024-05-09T00:55:05.374Z,774.00
2024-05-09T00:56:05.449Z,780.00
2024-05-09T00:57:05.434Z,771.00
2024-05-09T00:58:05.441Z,772.00
2024-05-09T00:59:05.462Z,775.00
2024-05-09T01:00:07.788Z,772.00
2024-05-09T01:01:05.548Z,772.00
2024-05-09T01:02:05.484Z,771.00
2024-05-09T01:03:05.920Z,775.00
2024-05-09T01:04:05.510Z,769.00
2024-05-09T01:05:05.519Z,779.00
2024-05-09T01:06:05.477Z,768.00
2024-05-09T01:07:05.438Z,764.00
2024-05-09T01:08:05.535Z,766.00
2024-05-09T01:09:05.460Z,764.00
2024-05-09T01:10:09.188Z,766.00
2024-05-09T01:11:06.533Z,766.00
2024-05-09T01:12:05.629Z,767.00
2024-05-09T01:13:05.955Z,766.00
2024-05-09T01:14:05.655Z,767.00
2024-05-09T01:15:05.550Z,765.00
2024-05-09T01:16:05.549Z,749.00
2024-05-09T01:17:05.571Z,756.00
2024-05-09T01:18:05.699Z,762.00
2024-05-09T01:19:05.637Z,748.00
2024-05-09T01:20:06.436Z,758.00
2024-05-09T01:21:05.632Z,758.00
2024-05-09T01:22:05.587Z,759.00
2024-05-09T01:23:05.607Z,755.00
2024-05-09T01:24:05.582Z,757.00
2024-05-09T01:25:05.599Z,754.00
2024-05-09T01:26:05.677Z,762.00
2024-05-09T01:27:05.673Z,752.00
2024-05-09T01:28:05.647Z,750.00
2024-05-09T01:29:05.679Z,746.00
2024-05-09T01:30:09.517Z,746.00
2024-05-09T01:31:06.641Z,747.00
2024-05-09T01:32:05.747Z,748.00
2024-05-09T01:33:07.390Z,740.00
2024-05-09T01:34:05.675Z,755.00
2024-05-09T01:35:05.695Z,749.00
2024-05-09T01:36:05.655Z,736.00
2024-05-09T01:37:05.708Z,741.00
2024-05-09T01:38:05.870Z,740.00
2024-05-09T01:39:05.665Z,739.00
2024-05-09T01:40:09.560Z,728.00
2024-05-09T01:41:06.686Z,729.00
2024-05-09T01:42:05.702Z,731.00
2024-05-09T01:43:05.699Z,735.00
2024-05-09T01:44:05.740Z,734.00
2024-05-09T01:45:05.684Z,741.00
2024-05-09T01:46:05.688Z,734.00
2024-05-09T01:47:05.715Z,746.00
2024-05-09T01:48:05.877Z,728.00
2024-05-09T01:49:05.857Z,735.00
2024-05-09T01:50:08.984Z,739.00
2024-05-09T01:51:06.770Z,738.00
2024-05-09T01:52:05.740Z,740.00
2024-05-09T01:53:05.906Z,730.00
2024-05-09T01:54:05.724Z,731.00
2024-05-09T01:55:06.718Z,733.00
2024-05-09T01:56:05.742Z,726.00
2024-05-09T01:57:05.770Z,730.00
2024-05-09T01:58:05.781Z,730.00
2024-05-09T01:59:05.773Z,732.00
2024-05-09T02:00:07.714Z,733.00
2024-05-09T02:01:05.876Z,726.00
2024-05-09T02:02:05.934Z,728.00
2024-05-09T02:03:05.977Z,727.00
2024-05-09T02:04:06.116Z,725.00
2024-05-09T02:05:06.099Z,717.00
2024-05-09T02:06:05.849Z,724.00
2024-05-09T02:07:05.833Z,721.00
2024-05-09T02:08:05.830Z,725.00
2024-05-09T02:09:05.791Z,720.00
2024-05-09T02:10:13.605Z,719.00
2024-05-09T02:11:06.866Z,719.00
2024-05-09T02:12:06.061Z,721.00
2024-05-09T02:13:05.806Z,720.00
2024-05-09T02:14:05.851Z,714.00
2024-05-09T02:15:05.804Z,715.00
2024-05-09T02:16:05.820Z,710.00
2024-05-09T02:17:05.846Z,719.00
2024-05-09T02:18:06.050Z,712.00
2024-05-09T02:19:05.909Z,718.00
2024-05-09T02:20:06.294Z,707.00
2024-05-09T02:21:05.868Z,706.00
2024-05-09T02:22:05.822Z,714.00
2024-05-09T02:23:06.324Z,715.00
2024-05-09T02:24:05.856Z,711.00
2024-05-09T02:25:05.870Z,708.00
2024-05-09T02:26:06.024Z,714.00
2024-05-09T02:27:06.114Z,703.00
2024-05-09T02:28:06.043Z,712.00
2024-05-09T02:29:06.110Z,710.00
2024-05-09T02:30:12.307Z,707.00
2024-05-09T02:31:07.072Z,707.00
2024-05-09T02:32:06.125Z,708.00
2024-05-09T02:33:06.329Z,705.00
2024-05-09T02:34:06.201Z,704.00
2024-05-09T02:35:06.111Z,710.00
2024-05-09T02:36:06.082Z,705.00
2024-05-09T02:37:06.127Z,694.00
2024-05-09T02:38:06.165Z,706.00
2024-05-09T02:39:06.091Z,703.00
2024-05-09T02:40:09.250Z,697.00
2024-05-09T02:41:07.322Z,697.00
2024-05-09T02:42:06.116Z,699.00
2024-05-09T02:43:06.359Z,699.00
2024-05-09T02:44:06.182Z,701.00
2024-05-09T02:45:06.112Z,697.00
2024-05-09T02:46:06.104Z,705.00
2024-05-09T02:47:06.154Z,709.00
2024-05-09T02:48:06.421Z,701.00
2024-05-09T02:49:06.255Z,703.00
2024-05-09T02:50:07.981Z,695.00
2024-05-09T02:51:06.269Z,694.00
2024-05-09T02:52:06.134Z,695.00
2024-05-09T02:53:06.350Z,698.00
2024-05-09T02:54:06.217Z,698.00
2024-05-09T02:55:06.235Z,699.00
2024-05-09T02:56:06.301Z,697.00
2024-05-09T02:57:06.379Z,685.00
2024-05-09T02:58:06.373Z,699.00
2024-05-09T02:59:06.396Z,688.00
2024-05-09T03:00:14.939Z,682.00
2024-05-09T03:01:07.643Z,683.00
2024-05-09T03:02:06.550Z,684.00
2024-05-09T03:03:06.952Z,688.00
2024-05-09T03:04:06.600Z,687.00
2024-05-09T03:05:06.507Z,678.00
2024-05-09T03:06:06.490Z,686.00
2024-05-09T03:07:06.777Z,691.00
2024-05-09T03:08:06.561Z,680.00
2024-05-09T03:09:06.487Z,689.00
2024-05-09T03:10:12.211Z,671.00
2024-05-09T03:11:07.597Z,671.00
2024-05-09T03:12:06.604Z,672.00
2024-05-09T03:13:06.523Z,676.00
2024-05-09T03:14:06.534Z,675.00
2024-05-09T03:15:06.495Z,683.00
2024-05-09T03:16:06.551Z,678.00
2024-05-09T03:17:06.627Z,681.00
2024-05-09T03:18:07.157Z,688.00
2024-05-09T03:19:06.602Z,688.00
2024-05-09T03:20:11.657Z,682.00
2024-05-09T03:21:07.602Z,682.00
2024-05-09T03:22:06.515Z,683.00
2024-05-09T03:23:06.700Z,684.00
2024-05-09T03:24:06.513Z,685.00
2024-05-09T03:25:06.526Z,683.00
2024-05-09T03:26:06.541Z,687.00
2024-05-09T03:27:06.601Z,688.00
2024-05-09T03:28:06.560Z,686.00
2024-05-09T03:29:06.558Z,688.00
2024-05-09T03:30:07.661Z,678.00
2024-05-09T03:31:06.522Z,688.00
2024-05-09T03:32:06.598Z,692.00
2024-05-09T03:33:06.652Z,684.00
2024-05-09T03:34:06.755Z,687.00
2024-05-09T03:35:06.598Z,669.00
2024-05-09T03:36:08.961Z,682.00
2024-05-09T03:37:06.670Z,682.00
2024-05-09T03:38:06.629Z,682.00
2024-05-09T03:39:06.564Z,679.00
2024-05-09T03:40:09.357Z,683.00
2024-05-09T03:41:07.637Z,682.00
2024-05-09T03:42:06.591Z,682.00
2024-05-09T03:43:06.578Z,684.00
2024-05-09T03:44:06.598Z,679.00
2024-05-09T03:45:06.581Z,685.00
2024-05-09T03:46:06.584Z,678.00
2024-05-09T03:47:06.683Z,678.00
2024-05-09T03:48:06.736Z,673.00
2024-05-09T03:49:06.747Z,675.00
2024-05-09T03:50:14.965Z,680.00
2024-05-09T03:51:07.701Z,680.00
2024-05-09T03:52:06.598Z,681.00
2024-05-09T03:53:06.678Z,681.00
2024-05-09T03:54:06.613Z,666.00
2024-05-09T03:55:06.606Z,681.00
2024-05-09T03:56:06.632Z,669.00
2024-05-09T03:57:06.705Z,675.00
2024-05-09T03:58:06.602Z,674.00
2024-05-09T03:59:06.638Z,668.00
2024-05-09T04:00:14.450Z,668.00
2024-05-09T04:01:07.610Z,669.00
2024-05-09T04:02:06.717Z,672.00
2024-05-09T04:03:08.743Z,673.00
2024-05-09T04:04:06.635Z,669.00
2024-05-09T04:05:06.652Z,673.00
2024-05-09T04:06:06.614Z,676.00
2024-05-09T04:07:06.653Z,689.00
2024-05-09T04:08:06.679Z,697.00
2024-05-09T04:09:06.624Z,696.00
2024-05-09T04:10:09.015Z,685.00
2024-05-09T04:11:06.729Z,685.00
2024-05-09T04:12:06.693Z,688.00
2024-05-09T04:13:06.640Z,691.00
2024-05-09T04:14:06.720Z,690.00
2024-05-09T04:15:09.606Z,698.00
2024-05-09T04:16:06.652Z,686.00
2024-05-09T04:17:06.729Z,687.00
2024-05-09T04:18:07.050Z,685.00
2024-05-09T04:19:06.769Z,689.00
2024-05-09T04:20:08.535Z,687.00
2024-05-09T04:21:06.689Z,685.00
2024-05-09T04:22:06.645Z,687.00
2024-05-09T04:23:07.558Z,689.00
2024-05-09T04:24:06.658Z,692.00
2024-05-09T04:25:06.666Z,698.00
2024-05-09T04:26:06.678Z,698.00
2024-05-09T04:27:06.721Z,688.00
2024-05-09T04:28:06.693Z,684.00
2024-05-09T04:29:06.714Z,696.00
2024-05-09T04:30:10.075Z,684.00
2024-05-09T04:31:07.683Z,685.00
2024-05-09T04:32:06.762Z,688.00
2024-05-09T04:33:08.043Z,690.00
2024-05-09T04:34:06.860Z,697.00
2024-05-09T04:35:06.705Z,695.00
2024-05-09T04:36:06.701Z,706.00
2024-05-09T04:37:13.966Z,600.00
2024-05-09T04:38:14.941Z,600.00
2024-05-09T04:39:13.984Z,600.00
2024-05-09T04:40:24.151Z,600.00
2024-05-09T04:41:15.026Z,600.00
2024-05-09T04:42:14.060Z,600.00
2024-05-09T04:43:14.144Z,600.00
2024-05-09T04:44:14.086Z,600.00
2024-05-09T04:45:14.058Z,600.00
2024-05-09T04:46:14.083Z,604.00
2024-05-09T04:47:14.190Z,601.00
2024-05-09T04:48:14.437Z,601.00
2024-05-09T04:49:14.336Z,600.00
2024-05-09T04:50:21.170Z,600.00
2024-05-09T04:51:15.136Z,600.00
2024-05-09T04:52:14.111Z,601.00
2024-05-09T04:53:14.187Z,602.00
2024-05-09T04:54:26.001Z,601.00
2024-05-09T04:55:15.143Z,600.00
2024-05-09T04:56:14.277Z,600.00
2024-05-09T04:57:14.172Z,600.00
2024-05-09T04:58:14.171Z,600.00
2024-05-09T04:59:14.292Z,598.00
2024-05-09T05:00:18.076Z,602.00
2024-05-09T05:01:15.340Z,602.00
2024-05-09T05:02:14.316Z,602.00
2024-05-09T05:03:15.924Z,602.00
2024-05-09T05:04:14.570Z,604.00
2024-05-09T05:05:14.694Z,604.00
2024-05-09T05:06:14.645Z,602.00
2024-05-09T05:07:14.698Z,600.00
2024-05-09T05:08:15.239Z,603.00
2024-05-09T05:09:14.865Z,602.00
2024-05-09T05:10:21.649Z,603.00
2024-05-09T05:11:16.033Z,603.00
2024-05-09T05:12:15.053Z,604.00
2024-05-09T05:13:14.911Z,604.00
2024-05-09T05:14:14.912Z,601.00
2024-05-09T05:15:14.904Z,601.00
2024-05-09T05:16:14.925Z,602.00
2024-05-09T05:17:14.948Z,603.00
2024-05-09T05:18:15.047Z,600.00
2024-05-09T05:19:17.485Z,600.00
2024-05-09T05:20:18.045Z,600.00
2024-05-09T05:21:15.973Z,601.00
2024-05-09T05:22:14.931Z,601.00
2024-05-09T05:23:15.171Z,601.00
2024-05-09T05:24:14.938Z,600.00
2024-05-09T05:25:14.945Z,603.00
2024-05-09T05:26:14.963Z,603.00
2024-05-09T05:27:14.950Z,601.00
2024-05-09T05:28:14.955Z,605.00
2024-05-09T05:29:17.221Z,605.00
2024-05-09T05:30:21.332Z,605.00
2024-05-09T05:31:16.025Z,605.00
2024-05-09T05:32:15.181Z,605.00
2024-05-09T05:33:15.429Z,605.00
2024-05-09T05:34:15.021Z,605.00
2024-05-09T05:35:15.042Z,604.00
2024-05-09T05:36:15.023Z,603.00
2024-05-09T05:37:15.028Z,605.00
2024-05-09T05:38:15.083Z,605.00
2024-05-09T05:39:15.044Z,602.00
2024-05-09T05:40:25.222Z,603.00
2024-05-09T05:41:16.113Z,603.00
2024-05-09T05:42:15.052Z,602.00
2024-05-09T05:43:15.070Z,599.00
2024-05-09T05:44:15.106Z,595.00
2024-05-09T05:45:15.073Z,594.00
2024-05-09T05:46:15.084Z,600.00
2024-05-09T05:47:15.215Z,600.00
2024-05-09T05:48:15.160Z,600.00
2024-05-09T05:49:15.214Z,600.00
2024-05-09T05:50:24.242Z,601.00
2024-05-09T05:51:16.342Z,601.00
2024-05-09T05:52:15.179Z,602.00
2024-05-09T05:53:15.493Z,601.00
2024-05-09T05:54:15.193Z,602.00
2024-05-09T05:55:15.192Z,596.00
2024-05-09T05:56:15.223Z,602.00
2024-05-09T05:57:15.210Z,602.00
2024-05-09T05:58:15.234Z,602.00
2024-05-09T05:59:15.905Z,601.00
2024-05-09T06:00:25.430Z,600.00
2024-05-09T06:01:16.238Z,600.00
2024-05-09T06:02:15.300Z,600.00
2024-05-09T06:03:15.272Z,600.00
2024-05-09T06:04:15.214Z,599.00
2024-05-09T06:05:15.227Z,598.00
2024-05-09T06:06:15.196Z,605.00
2024-05-09T06:07:15.188Z,604.00
2024-05-09T06:08:15.293Z,605.00
2024-05-09T06:09:15.183Z,604.00
2024-05-09T06:10:21.379Z,604.00
2024-05-09T06:11:16.227Z,604.00
2024-05-09T06:12:15.260Z,605.00
2024-05-09T06:13:15.157Z,601.00
2024-05-09T06:14:15.173Z,602.00
2024-05-09T06:15:15.168Z,601.00
2024-05-09T06:16:15.138Z,602.00
2024-05-09T06:17:15.223Z,602.00
2024-05-09T06:18:15.316Z,605.00
2024-05-09T06:19:15.305Z,602.00
2024-05-09T06:20:20.717Z,602.00
2024-05-09T06:21:16.323Z,602.00
2024-05-09T06:22:15.136Z,602.00
2024-05-09T06:23:15.194Z,601.00
2024-05-09T06:24:15.119Z,592.00
2024-05-09T06:25:15.131Z,589.00
2024-05-09T06:26:15.170Z,601.00
2024-05-09T06:27:15.104Z,606.00
2024-05-09T06:28:15.140Z,605.00
2024-05-09T06:29:15.127Z,606.00
2024-05-09T06:30:25.621Z,605.00
2024-05-09T06:31:16.079Z,605.00
2024-05-09T06:32:15.129Z,605.00
2024-05-09T06:33:16.480Z,603.00
2024-05-09T06:34:15.136Z,605.00
2024-05-09T06:35:15.161Z,606.00
2024-05-09T06:36:15.053Z,609.00
2024-05-09T06:37:15.042Z,607.00
2024-05-09T06:38:15.153Z,609.00
2024-05-09T06:39:15.035Z,609.00
2024-05-09T06:40:21.256Z,607.00
2024-05-09T06:41:16.053Z,607.00
2024-05-09T06:42:15.023Z,606.00
2024-05-09T06:43:16.836Z,605.00
2024-05-09T06:44:15.047Z,607.00
2024-05-09T06:45:15.009Z,606.00
2024-05-09T06:46:14.997Z,604.00
2024-05-09T06:47:15.045Z,597.00
2024-05-09T06:48:15.180Z,599.00
2024-05-09T06:49:15.174Z,603.00
2024-05-09T06:50:23.297Z,600.00
2024-05-09T06:51:16.040Z,600.00
2024-05-09T06:52:14.970Z,600.00
2024-05-09T06:53:15.242Z,598.00
2024-05-09T06:54:14.938Z,600.00
2024-05-09T06:55:14.932Z,591.00
2024-05-09T06:56:14.977Z,602.00
2024-05-09T06:57:14.914Z,600.00
2024-05-09T06:58:14.917Z,600.00
2024-05-09T06:59:14.997Z,602.00
2024-05-09T07:00:22.833Z,600.00
2024-05-09T07:01:16.040Z,600.00
2024-05-09T07:02:15.133Z,600.00
2024-05-09T07:03:17.344Z,599.00
2024-05-09T07:04:15.158Z,597.00
2024-05-09T07:05:15.046Z,592.00
2024-05-09T07:06:14.969Z,584.00
2024-05-09T07:07:14.918Z,580.00
2024-05-09T07:08:15.053Z,573.00
2024-05-09T07:09:14.889Z,598.00
2024-05-09T07:10:21.994Z,600.00
2024-05-09T07:11:15.981Z,588.00
2024-05-09T07:12:14.950Z,571.00
2024-05-09T07:13:15.420Z,566.00
2024-05-09T07:14:14.862Z,558.00
2024-05-09T07:15:14.795Z,549.00
2024-05-09T07:16:14.778Z,588.00
2024-05-09T07:17:14.908Z,610.00
2024-05-09T07:18:14.978Z,617.00
2024-05-09T07:19:15.059Z,624.00
2024-05-09T07:20:23.126Z,634.00
2024-05-09T07:21:15.835Z,634.00
2024-05-09T07:22:14.694Z,635.00
2024-05-09T07:23:14.749Z,638.00
2024-05-09T07:24:14.674Z,644.00
2024-05-09T07:25:14.707Z,651.00
2024-05-09T07:26:14.676Z,658.00
2024-05-09T07:27:14.656Z,658.00
2024-05-09T07:28:14.761Z,660.00
2024-05-09T07:29:14.715Z,662.00
2024-05-09T07:30:22.909Z,665.00
2024-05-09T07:31:15.630Z,665.00
2024-05-09T07:32:14.739Z,666.00
2024-05-09T07:33:14.764Z,668.00
2024-05-09T07:34:14.836Z,675.00
2024-05-09T07:35:14.672Z,680.00
2024-05-09T07:36:14.603Z,688.00
2024-05-09T07:37:14.599Z,680.00
2024-05-09T07:38:14.837Z,677.00
2024-05-09T07:39:14.692Z,672.00
2024-05-09T07:40:24.180Z,674.00
2024-05-09T07:41:15.581Z,674.00
2024-05-09T07:42:14.636Z,674.00
2024-05-09T07:43:15.154Z,675.00
2024-05-09T07:44:14.693Z,671.00
2024-05-09T07:45:29.989Z,679.00
2024-05-09T07:48:28.649Z,674.00
2024-05-09T07:49:45.377Z,675.00
2024-05-09T07:53:29.763Z,675.00
2024-05-09T07:53:37.827Z,676.00
2024-05-09T07:54:15.675Z,676.00
2024-05-09T07:55:14.698Z,684.00
2024-05-09T07:56:14.720Z,695.00
2024-05-09T07:57:14.687Z,712.00
2024-05-09T07:58:14.549Z,723.00
2024-05-09T07:59:14.503Z,694.00
2024-05-09T08:00:17.307Z,670.00
2024-05-09T08:01:15.614Z,652.00
2024-05-09T08:02:14.615Z,636.00
2024-05-09T08:03:14.510Z,618.00
2024-05-09T08:04:14.523Z,604.00
2024-05-09T08:05:14.609Z,596.00
2024-05-09T08:06:14.561Z,604.00
2024-05-09T08:07:14.541Z,600.00
2024-05-09T08:08:14.374Z,602.00
2024-05-09T08:09:20.777Z,600.00
2024-05-09T08:10:19.160Z,588.00
2024-05-09T08:11:15.341Z,577.00
2024-05-09T08:12:14.276Z,560.00
2024-05-09T08:13:14.328Z,554.00
2024-05-09T08:14:14.225Z,545.00
2024-05-09T08:15:14.215Z,542.00
2024-05-09T08:16:14.428Z,577.00
2024-05-09T08:17:14.211Z,605.00
2024-05-09T08:18:14.330Z,605.00
2024-05-09T08:19:14.209Z,595.00
2024-05-09T08:20:22.848Z,600.00
2024-05-09T08:21:15.108Z,597.00
2024-05-09T08:22:14.174Z,584.00
2024-05-09T08:23:14.059Z,582.00
2024-05-09T08:24:14.036Z,574.00
2024-05-09T08:25:14.528Z,568.00
2024-05-09T08:26:14.002Z,600.00
2024-05-09T08:27:13.956Z,600.00
2024-05-09T08:28:14.266Z,602.00
2024-05-09T08:29:13.901Z,600.00
2024-05-09T08:30:21.846Z,603.00
2024-05-09T08:31:15.075Z,603.00
2024-05-09T08:32:13.920Z,603.00
2024-05-09T08:33:13.945Z,606.00
2024-05-09T08:34:13.993Z,617.00
2024-05-09T08:35:13.737Z,629.00
2024-05-09T08:36:13.730Z,642.00
2024-05-09T08:37:21.173Z,650.00
2024-05-09T08:38:14.707Z,650.00
2024-05-09T08:39:13.636Z,654.00
2024-05-09T08:40:23.623Z,660.00
2024-05-09T08:41:14.605Z,651.00
2024-05-09T08:42:13.596Z,657.00
2024-05-09T08:43:13.767Z,666.00
2024-05-09T08:44:13.553Z,709.00
2024-05-09T08:45:13.537Z,748.00
2024-05-09T08:46:13.698Z,770.00
2024-05-09T08:47:13.525Z,784.00
2024-05-09T08:48:14.804Z,793.00
2024-05-09T08:49:13.745Z,803.00
2024-05-09T08:50:23.567Z,817.00
2024-05-09T08:51:14.608Z,818.00
2024-05-09T08:52:13.563Z,819.00
2024-05-09T08:53:13.520Z,825.00
2024-05-09T08:54:13.494Z,838.00
2024-05-09T08:55:13.624Z,846.00
2024-05-09T08:56:13.469Z,858.00
2024-05-09T08:57:13.465Z,854.00
2024-05-09T08:58:13.798Z,855.00
2024-05-09T08:59:13.445Z,863.00
2024-05-09T09:00:18.029Z,863.00
2024-05-09T09:01:14.481Z,864.00
2024-05-09T09:02:13.792Z,866.00
2024-05-09T09:03:13.449Z,867.00
2024-05-09T09:04:13.590Z,864.00
2024-05-09T09:05:13.368Z,865.00
2024-05-09T09:06:13.297Z,864.00
2024-05-09T09:07:13.341Z,848.00
2024-05-09T09:08:13.265Z,847.00
2024-05-09T09:09:13.254Z,843.00
2024-05-09T09:11:13.286Z,836.00
2024-05-09T09:12:13.218Z,840.00
2024-05-09T09:13:13.294Z,838.00
2024-05-09T09:14:13.185Z,849.00
2024-05-09T09:15:13.171Z,840.00
2024-05-09T09:16:13.259Z,832.00
2024-05-09T09:17:13.182Z,823.00
2024-05-09T09:18:13.295Z,816.00
2024-05-09T09:19:13.234Z,833.00
2024-05-09T09:20:16.498Z,817.00
2024-05-09T09:21:14.125Z,815.00
2024-05-09T09:22:13.183Z,815.00
2024-05-09T09:23:13.096Z,809.00
2024-05-09T09:24:13.078Z,807.00
2024-05-09T09:25:13.111Z,790.00
2024-05-09T09:26:13.057Z,796.00
2024-05-09T09:27:13.046Z,800.00
2024-05-09T09:28:13.068Z,780.00
2024-05-09T09:29:13.024Z,777.00
2024-05-09T09:30:27.402Z,754.00
2024-05-09T09:31:14.054Z,754.00
2024-05-09T09:32:12.978Z,727.00
2024-05-09T09:33:13.112Z,716.00
2024-05-09T09:34:13.267Z,715.00
2024-05-09T09:35:12.916Z,691.00
2024-05-09T09:36:12.950Z,696.00
2024-05-09T09:37:12.912Z,698.00
2024-05-09T09:38:12.862Z,685.00
2024-05-09T09:39:12.847Z,672.00
2024-05-09T09:40:13.349Z,660.00
2024-05-09T09:41:12.976Z,654.00
2024-05-09T09:42:12.925Z,652.00
2024-05-09T09:43:13.036Z,661.00
2024-05-09T09:44:13.005Z,665.00
2024-05-09T09:45:12.998Z,681.00
2024-05-09T09:46:13.291Z,686.00
2024-05-09T09:47:13.137Z,702.00
2024-05-09T09:48:13.267Z,730.00
2024-05-09T09:49:13.258Z,744.00
2024-05-09T09:50:16.985Z,751.00
2024-05-09T09:51:14.220Z,751.00
2024-05-09T09:52:13.375Z,753.00
2024-05-09T09:53:13.196Z,757.00
2024-05-09T09:54:13.182Z,753.00
2024-05-09T09:55:13.331Z,754.00
2024-05-09T09:56:13.167Z,746.00
2024-05-09T09:57:13.183Z,754.00
2024-05-09T09:58:14.439Z,746.00
2024-05-09T09:59:13.171Z,736.00
2024-05-09T10:00:17.399Z,731.00
2024-05-09T10:01:14.218Z,731.00
2024-05-09T10:02:13.329Z,728.00
2024-05-09T10:03:13.254Z,731.00
2024-05-09T10:04:13.202Z,724.00
2024-05-09T10:05:13.187Z,719.00
2024-05-09T10:06:13.112Z,731.00
2024-05-09T10:07:13.128Z,721.00
2024-05-09T10:08:13.111Z,718.00
2024-05-09T10:09:13.073Z,738.00
2024-05-09T10:10:16.343Z,734.00
2024-05-09T10:11:14.091Z,735.00
2024-05-09T10:12:13.083Z,740.00
2024-05-09T10:13:13.760Z,743.00
2024-05-09T10:14:13.044Z,758.00
2024-05-09T10:15:13.035Z,778.00
2024-05-09T10:16:13.073Z,801.00
2024-05-09T10:17:13.093Z,795.00
2024-05-09T10:18:13.240Z,802.00
2024-05-09T10:19:13.077Z,797.00
2024-05-09T10:20:21.334Z,807.00
2024-05-09T10:21:14.018Z,808.00
2024-05-09T10:22:13.058Z,807.00
2024-05-09T10:23:13.001Z,808.00
2024-05-09T10:24:12.986Z,813.00
2024-05-09T10:25:13.050Z,817.00
2024-05-09T10:26:12.973Z,813.00
2024-05-09T10:27:12.972Z,811.00
2024-05-09T10:28:13.012Z,806.00
2024-05-09T10:29:12.982Z,808.00
2024-05-09T10:30:21.253Z,808.00
2024-05-09T10:31:14.190Z,808.00
2024-05-09T10:32:12.952Z,805.00
2024-05-09T10:33:13.142Z,797.00
2024-05-09T10:34:13.407Z,801.00
2024-05-09T10:35:12.989Z,804.00
2024-05-09T10:36:12.934Z,792.00
2024-05-09T10:37:12.962Z,797.00
2024-05-09T10:38:12.929Z,778.00
2024-05-09T10:39:12.920Z,780.00
2024-05-09T10:40:20.277Z,777.00
2024-05-09T10:41:13.935Z,776.00
2024-05-09T10:42:12.924Z,769.00
2024-05-09T10:43:12.978Z,759.00
2024-05-09T10:44:12.904Z,743.00
2024-05-09T10:45:12.903Z,737.00
2024-05-09T10:46:13.071Z,730.00
2024-05-09T10:47:12.972Z,718.00
2024-05-09T10:48:12.969Z,706.00
2024-05-09T10:49:13.015Z,702.00
2024-05-09T10:51:12.982Z,685.00
2024-05-09T10:52:13.087Z,683.00
2024-05-09T10:53:13.101Z,673.00
2024-05-09T10:54:13.110Z,672.00
2024-05-09T10:55:13.156Z,665.00
2024-05-09T10:56:13.132Z,662.00
2024-05-09T10:57:13.142Z,658.00
2024-05-09T10:58:13.247Z,656.00
2024-05-09T10:59:13.166Z,655.00
2024-05-09T11:00:19.457Z,654.00
2024-05-09T11:01:14.523Z,654.00
2024-05-09T11:02:13.287Z,652.00
2024-05-09T11:03:13.224Z,646.00
2024-05-09T11:04:13.365Z,647.00
2024-05-09T11:05:13.305Z,646.00
2024-05-09T11:06:13.168Z,641.00
2024-05-09T11:07:13.259Z,636.00
2024-05-09T11:08:13.169Z,630.00
2024-05-09T11:09:13.167Z,629.00
2024-05-09T11:10:17.917Z,627.00
2024-05-09T11:11:14.180Z,628.00
2024-05-09T11:12:13.228Z,628.00
2024-05-09T11:13:13.289Z,627.00
2024-05-09T11:14:13.165Z,622.00
2024-05-09T11:15:13.155Z,618.00
2024-05-09T11:16:13.309Z,613.00
2024-05-09T11:17:13.187Z,612.00
2024-05-09T11:18:13.269Z,614.00
2024-05-09T11:19:13.329Z,613.00
2024-05-09T11:20:19.647Z,612.00
2024-05-09T11:21:14.298Z,612.00
2024-05-09T11:22:13.242Z,604.00
2024-05-09T11:23:13.148Z,598.00
2024-05-09T11:24:13.150Z,596.00
2024-05-09T11:25:13.386Z,592.00
2024-05-09T11:26:13.141Z,602.00
2024-05-09T11:27:13.137Z,603.00
2024-05-09T11:28:13.277Z,601.00
2024-05-09T11:29:15.006Z,600.00
2024-05-09T11:30:20.848Z,604.00
2024-05-09T11:31:14.313Z,603.00
2024-05-09T11:32:13.256Z,600.00
2024-05-09T11:33:13.278Z,591.00
2024-05-09T11:34:13.306Z,591.00
2024-05-09T11:35:13.248Z,587.00
2024-05-09T11:36:13.263Z,602.00
2024-05-09T11:37:13.454Z,602.00
2024-05-09T11:38:13.267Z,601.00
2024-05-09T11:39:13.240Z,601.00
2024-05-09T11:40:21.150Z,600.00
2024-05-09T11:41:14.242Z,600.00
2024-05-09T11:42:13.236Z,600.00
2024-05-09T11:43:13.310Z,601.00
2024-05-09T11:44:13.277Z,602.00
2024-05-09T11:45:13.235Z,601.00
2024-05-09T11:46:13.445Z,600.00
2024-05-09T11:47:13.268Z,603.00
2024-05-09T11:48:13.351Z,602.00
2024-05-09T11:49:13.371Z,601.00
2024-05-09T11:50:22.329Z,600.00
2024-05-09T11:51:14.223Z,601.00
2024-05-09T11:52:13.276Z,601.00
2024-05-09T11:53:13.244Z,600.00
2024-05-09T11:54:13.281Z,593.00
2024-05-09T11:55:13.246Z,587.00
2024-05-09T11:56:13.201Z,600.00
2024-05-09T11:57:13.205Z,600.00
2024-05-09T11:58:13.464Z,600.00
2024-05-09T11:59:13.201Z,600.00
2024-05-09T12:00:18.240Z,602.00
2024-05-09T12:01:14.257Z,602.00
2024-05-09T12:02:13.419Z,594.00
2024-05-09T12:03:13.245Z,594.00
2024-05-09T12:04:13.376Z,591.00
2024-05-09T12:05:13.250Z,592.00
2024-05-09T12:06:13.208Z,602.00
2024-05-09T12:07:13.258Z,600.00
2024-05-09T12:08:13.176Z,600.00
2024-05-09T12:09:13.163Z,603.00
2024-05-09T12:10:16.853Z,602.00
2024-05-09T12:11:14.374Z,601.00
2024-05-09T12:12:13.171Z,603.00
2024-05-09T12:13:13.226Z,604.00
2024-05-09T12:14:13.162Z,606.00
2024-05-09T12:15:13.164Z,616.00
2024-05-09T12:16:13.268Z,613.00
2024-05-09T12:17:13.246Z,612.00
2024-05-09T12:18:13.200Z,614.00
2024-05-09T12:19:13.163Z,611.00
2024-05-09T12:20:20.962Z,609.00
2024-05-09T12:21:14.155Z,609.00
2024-05-09T12:22:13.339Z,609.00
2024-05-09T12:23:13.199Z,611.00
2024-05-09T12:24:16.846Z,613.00
2024-05-09T12:25:14.385Z,609.00
2024-05-09T12:26:13.160Z,611.00
2024-05-09T12:27:13.165Z,613.00
2024-05-09T12:28:13.261Z,619.00
2024-05-09T12:29:13.177Z,630.00
2024-05-09T12:30:20.750Z,634.00
2024-05-09T12:31:14.209Z,635.00
2024-05-09T12:32:13.197Z,635.00
2024-05-09T12:33:13.691Z,637.00
2024-05-09T12:34:13.273Z,641.00